Time;durP1;ratioP1;P1;durP2;ratioP2;P2;SDS_P1;SDS_P2;PMS_P1;PMS_P2;Temp;Humidity;BMP_temperature;BMP_pressure;BME280_temperature;BME280_humidity;BME280_pressure;Samples;Min_cycle;Max_cycle;Signal;HPM_P1;HPM_P2
2021/04/01 00:01:17;;;;;;;3.55;0.50;;;;;;;;;;2576066;23;20012;-81
2021/04/01 00:02:37;;;;;;;0.75;0.50;;;;;;;;;;2568361;23;20480;-82
2021/04/01 00:03:55;;;;;;;0.95;0.63;;;;;;;;;;2562642;23;20474;-81
2021/04/01 00:05:15;;;;;;;1.23;0.60;;;;;;;;;;2573786;23;20012;-81
2021/04/01 00:06:34;;;;;;;1.88;0.63;;;;;;;;;;2583393;23;20404;-80
2021/04/01 00:07:52;;;;;;;3.80;0.63;;;;;;;;;;2582772;23;20008;-80
2021/04/01 00:09:11;;;;;;;0.68;0.50;;;;;;;;;;2568589;23;20005;-81
2021/04/01 00:10:32;;;;;;;2.47;0.52;;;;;;;;;;2575838;23;20012;-80
2021/04/01 00:11:51;;;;;;;3.03;0.50;;;;;;;;;;2569819;23;20005;-80
2021/04/01 00:13:10;;;;;;;1.85;0.60;;;;;;;;;;2577888;23;20016;-80
2021/04/01 00:14:29;;;;;;;1.05;0.60;;;;;;;;;;2582952;22;20016;-81
2021/04/01 00:15:47;;;;;;;1.55;0.50;;;;;;;;;;2581289;23;20012;-80
2021/04/01 00:17:07;;;;;;;0.70;0.70;;;;;;;;;;2582840;23;20012;-81
2021/04/01 00:18:26;;;;;;;1.58;0.60;;;;;;;;;;2570131;23;20020;-80
2021/04/01 00:19:45;;;;;;;2.72;0.70;;;;;;;;;;2577476;23;20063;-80
2021/04/01 00:21:04;;;;;;;1.58;0.60;;;;;;;;;;2580352;23;20016;-81
2021/04/01 00:22:23;;;;;;;0.95;0.60;;;;;;;;;;2581766;23;20420;-80
2021/04/01 00:23:42;;;;;;;1.42;0.73;;;;;;;;;;2582930;23;20032;-80
2021/04/01 00:25:01;;;;;;;0.95;0.43;;;;;;;;;;2568565;23;20036;-81
2021/04/01 00:26:20;;;;;;;0.82;0.60;;;;;;;;;;2568998;23;20009;-81
2021/04/01 00:27:39;;;;;;;0.93;0.40;;;;;;;;;;2578274;23;20004;-80
2021/04/01 00:28:58;;;;;;;0.77;0.73;;;;;;;;;;2582300;23;20012;-80
2021/04/01 00:30:17;;;;;;;1.55;0.50;;;;;;;;;;2556295;23;20444;-80
2021/04/01 00:31:36;;;;;;;2.45;0.60;;;;;;;;;;2556988;23;20009;-81
2021/04/01 00:32:55;;;;;;;0.82;0.50;;;;;;;;;;2570539;23;20005;-80
2021/04/01 00:34:14;;;;;;;0.73;0.60;;;;;;;;;;2556229;23;20013;-81
2021/04/01 00:35:33;;;;;;;0.40;0.40;;;;;;;;;;2564603;23;20012;-80
2021/04/01 00:36:51;;;;;;;0.40;0.40;;;;;;;;;;2561036;23;20017;-81
2021/04/01 00:38:10;;;;;;;2.60;0.60;;;;;;;;;;2557974;23;20012;-81
2021/04/01 00:39:29;;;;;;;0.63;0.47;;;;;;;;;;2552386;23;20088;-81
2021/04/01 00:40:48;;;;;;;2.92;0.60;;;;;;;;;;2551004;23;20037;-81
2021/04/01 00:42:06;;;;;;;2.13;0.50;;;;;;;;;;2557155;23;20013;-81
2021/04/01 00:43:25;;;;;;;1.50;0.60;;;;;;;;;;2569501;23;20012;-81
2021/04/01 00:44:44;;;;;;;0.70;0.52;;;;;;;;;;2563304;23;20013;-80
2021/04/01 00:46:03;;;;;;;1.15;0.30;;;;;;;;;;2569085;23;20005;-80
2021/04/01 00:47:22;;;;;;;2.10;0.70;;;;;;;;;;2562313;23;20013;-81
2021/04/01 00:48:40;;;;;;;1.10;0.40;;;;;;;;;;2569382;23;20009;-80
2021/04/01 00:49:59;;;;;;;0.52;0.40;;;;;;;;;;2558470;23;20402;-80
2021/04/01 00:51:18;;;;;;;1.65;0.63;;;;;;;;;;2558321;23;20005;-81
2021/04/01 00:52:38;;;;;;;1.08;0.50;;;;;;;;;;2557549;23;20084;-80
2021/04/01 00:53:57;;;;;;;0.95;0.45;;;;;;;;;;2557190;23;20437;-80
2021/04/01 00:55:16;;;;;;;0.40;0.40;;;;;;;;;;2558409;23;20009;-80
2021/04/01 00:56:35;;;;;;;1.90;0.50;;;;;;;;;;2553674;23;20401;-80
2021/04/01 00:57:56;;;;;;;0.50;0.50;;;;;;;;;;2556890;23;20020;-80
2021/04/01 00:59:15;;;;;;;1.52;0.50;;;;;;;;;;2557276;23;20017;-81
2021/04/01 01:00:35;;;;;;;0.68;0.50;;;;;;;;;;2558241;23;20438;-80
2021/04/01 01:02:04;;;;;;;0.75;0.50;;;;;;;;;;2559047;23;20013;-80
2021/04/01 01:03:23;;;;;;;2.75;0.40;;;;;;;;;;2559632;23;20013;-80
2021/04/01 01:04:43;;;;;;;0.30;0.30;;;;;;;;;;2557143;23;20009;-80
2021/04/01 01:06:02;;;;;;;0.40;0.30;;;;;;;;;;2557546;23;20009;-80
2021/04/01 01:07:21;;;;;;;1.35;0.50;;;;;;;;;;2552611;23;20029;-81
2021/04/01 01:08:40;;;;;;;0.90;0.52;;;;;;;;;;2559466;23;20005;-80
2021/04/01 01:10:00;;;;;;;1.48;0.50;;;;;;;;;;2558165;23;20354;-81
2021/04/01 01:11:18;;;;;;;1.25;0.73;;;;;;;;;;2557375;23;20009;-80
2021/04/01 01:12:37;;;;;;;2.80;0.60;;;;;;;;;;2557111;23;20041;-81
2021/04/01 01:13:56;;;;;;;1.02;0.50;;;;;;;;;;2558505;23;20017;-82
2021/04/01 01:15:15;;;;;;;1.30;0.45;;;;;;;;;;2553386;23;20009;-81
2021/04/01 01:16:35;;;;;;;2.03;0.50;;;;;;;;;;2552060;23;20044;-80
2021/04/01 01:17:54;;;;;;;0.93;0.50;;;;;;;;;;2556583;23;20441;-80
2021/04/01 01:19:13;;;;;;;0.47;0.40;;;;;;;;;;2558332;23;20087;-81
2021/04/01 01:20:36;;;;;;;0.63;0.38;;;;;;;;;;2559260;23;20012;-80
2021/04/01 01:21:55;;;;;;;2.38;0.40;;;;;;;;;;2559269;23;20013;-81
2021/04/01 01:23:14;;;;;;;0.68;0.30;;;;;;;;;;2556458;23;20013;-81
2021/04/01 01:24:37;;;;;;;5.00;0.70;;;;;;;;;;2552037;23;20012;-80
2021/04/01 01:25:57;;;;;;;2.08;0.50;;;;;;;;;;2558076;23;20009;-81
2021/04/01 01:27:16;;;;;;;0.45;0.45;;;;;;;;;;2558117;23;20005;-81
2021/04/01 01:28:35;;;;;;;0.77;0.55;;;;;;;;;;2557305;23;20009;-81
2021/04/01 01:29:55;;;;;;;0.60;0.50;;;;;;;;;;2570078;23;20465;-81
2021/04/01 01:31:14;;;;;;;0.50;0.32;;;;;;;;;;2558464;23;20009;-81
2021/04/01 01:32:37;;;;;;;1.17;0.45;;;;;;;;;;2558007;23;20013;-80
2021/04/01 01:33:57;;;;;;;0.77;0.45;;;;;;;;;;2552419;23;20017;-81
2021/04/01 01:35:21;;;;;;;1.45;0.50;;;;;;;;;;2557409;23;20017;-81
2021/04/01 01:36:40;;;;;;;0.90;0.43;;;;;;;;;;2558130;23;20089;-81
2021/04/01 01:38:01;;;;;;;1.85;0.38;;;;;;;;;;2558314;23;20038;-80
2021/04/01 01:39:20;;;;;;;1.17;0.57;;;;;;;;;;2553519;23;20013;-80
2021/04/01 01:40:39;;;;;;;0.60;0.40;;;;;;;;;;2556353;23;20017;-80
2021/04/01 01:41:58;;;;;;;0.70;0.60;;;;;;;;;;2553286;23;20016;-81
2021/04/01 01:43:17;;;;;;;1.73;0.50;;;;;;;;;;2553480;23;20017;-80
2021/04/01 01:44:37;;;;;;;1.92;0.60;;;;;;;;;;2558872;23;20088;-80
2021/04/01 01:45:56;;;;;;;1.38;0.50;;;;;;;;;;2557351;23;20092;-81
2021/04/01 01:47:15;;;;;;;1.15;0.50;;;;;;;;;;2557883;23;20017;-80
2021/04/01 01:48:34;;;;;;;0.75;0.45;;;;;;;;;;2557761;23;20013;-80
2021/04/01 01:49:53;;;;;;;1.05;0.60;;;;;;;;;;2558611;23;20080;-80
2021/04/01 01:51:11;;;;;;;1.30;0.55;;;;;;;;;;2551491;23;20053;-80
2021/04/01 01:52:30;;;;;;;1.13;0.50;;;;;;;;;;2558403;23;20346;-80
2021/04/01 01:53:50;;;;;;;1.90;0.63;;;;;;;;;;2556671;23;20426;-81
2021/04/01 01:55:09;;;;;;;0.63;0.55;;;;;;;;;;2553734;23;20013;-80
2021/04/01 01:56:28;;;;;;;1.70;0.50;;;;;;;;;;2557385;23;20425;-79
2021/04/01 01:57:47;;;;;;;1.63;0.70;;;;;;;;;;2558002;23;20009;-81
2021/04/01 01:59:06;;;;;;;1.00;0.45;;;;;;;;;;2556546;23;20013;-80
2021/04/01 02:00:27;;;;;;;1.13;0.93;;;;;;;;;;2552593;23;20013;-81
2021/04/01 02:01:50;;;;;;;0.95;0.50;;;;;;;;;;2558590;23;20005;-80
2021/04/01 02:03:10;;;;;;;1.77;0.90;;;;;;;;;;2557533;23;20009;-80
2021/04/01 02:04:29;;;;;;;1.33;0.60;;;;;;;;;;2556171;23;20457;-80
2021/04/01 02:05:48;;;;;;;3.08;0.45;;;;;;;;;;2557401;23;20114;-81
2021/04/01 02:07:06;;;;;;;0.43;0.38;;;;;;;;;;2558239;23;20009;-80
2021/04/01 02:08:25;;;;;;;0.63;0.30;;;;;;;;;;2558536;23;20009;-81
2021/04/01 02:09:45;;;;;;;1.33;0.40;;;;;;;;;;2556062;23;20156;-80
2021/04/01 02:11:04;;;;;;;0.60;0.60;;;;;;;;;;2551469;23;20025;-80
2021/04/01 02:12:23;;;;;;;1.77;0.40;;;;;;;;;;2557535;23;20009;-81
2021/04/01 02:13:42;;;;;;;0.70;0.47;;;;;;;;;;2558977;23;20337;-81
2021/04/01 02:15:01;;;;;;;2.50;0.77;;;;;;;;;;2556830;23;20033;-80
2021/04/01 02:16:20;;;;;;;0.77;0.60;;;;;;;;;;2556790;23;20009;-80
2021/04/01 02:17:39;;;;;;;1.42;0.52;;;;;;;;;;2556513;23;20005;-81
2021/04/01 02:18:58;;;;;;;1.27;0.50;;;;;;;;;;2558825;23;20037;-80
2021/04/01 02:20:17;;;;;;;3.63;0.45;;;;;;;;;;2556697;23;20016;-80
2021/04/01 02:21:36;;;;;;;3.03;0.70;;;;;;;;;;2556405;23;20422;-80
2021/04/01 02:22:55;;;;;;;0.82;0.50;;;;;;;;;;2557512;23;20092;-80
2021/04/01 02:24:13;;;;;;;1.67;0.52;;;;;;;;;;2558006;23;20013;-80
2021/04/01 02:25:32;;;;;;;1.10;0.57;;;;;;;;;;2557089;23;20045;-80
2021/04/01 02:26:55;;;;;;;1.20;0.50;;;;;;;;;;2555937;23;20009;-80
2021/04/01 02:28:15;;;;;;;1.80;0.50;;;;;;;;;;2553088;23;20009;-81
2021/04/01 02:29:34;;;;;;;1.15;0.50;;;;;;;;;;2557684;23;20017;-80
2021/04/01 02:30:53;;;;;;;1.05;0.50;;;;;;;;;;2557961;23;20009;-81
2021/04/01 02:32:12;;;;;;;0.47;0.38;;;;;;;;;;2550026;23;20469;-80
2021/04/01 02:33:33;;;;;;;0.40;0.40;;;;;;;;;;2556764;23;20450;-80
2021/04/01 02:34:52;;;;;;;0.73;0.32;;;;;;;;;;2558239;23;20005;-81
2021/04/01 02:36:11;;;;;;;0.77;0.45;;;;;;;;;;2558096;23;20450;-80
2021/04/01 02:37:29;;;;;;;1.33;0.50;;;;;;;;;;2550834;23;20008;-80
2021/04/01 02:38:48;;;;;;;2.08;0.57;;;;;;;;;;2556296;23;20469;-80
2021/04/01 02:40:07;;;;;;;1.02;0.60;;;;;;;;;;2557376;23;20009;-81
2021/04/01 02:41:26;;;;;;;1.73;0.90;;;;;;;;;;2558882;23;20013;-80
2021/04/01 02:42:45;;;;;;;1.15;0.70;;;;;;;;;;2556325;23;20017;-81
2021/04/01 02:44:04;;;;;;;0.55;0.30;;;;;;;;;;2556269;23;20013;-80
2021/04/01 02:45:23;;;;;;;0.95;0.60;;;;;;;;;;2557785;23;20037;-81
2021/04/01 02:46:42;;;;;;;5.35;0.50;;;;;;;;;;2558921;23;20005;-80
2021/04/01 02:48:02;;;;;;;0.93;0.50;;;;;;;;;;2556854;23;20430;-80
2021/04/01 02:49:20;;;;;;;0.60;0.60;;;;;;;;;;2556384;23;20016;-80
2021/04/01 02:50:41;;;;;;;1.55;0.40;;;;;;;;;;2551679;23;20009;-80
2021/04/01 02:52:00;;;;;;;1.25;0.50;;;;;;;;;;2558360;23;20009;-80
2021/04/01 02:53:18;;;;;;;1.88;0.40;;;;;;;;;;2557278;23;20009;-80
2021/04/01 02:54:37;;;;;;;1.83;0.70;;;;;;;;;;2556304;23;20036;-80
2021/04/01 02:55:56;;;;;;;0.82;0.45;;;;;;;;;;2556134;23;20017;-80
2021/04/01 02:57:18;;;;;;;0.47;0.47;;;;;;;;;;2557963;23;20041;-80
2021/04/01 02:58:38;;;;;;;0.90;0.50;;;;;;;;;;2558337;23;20013;-80
2021/04/01 02:59:58;;;;;;;1.67;0.55;;;;;;;;;;2555819;23;20017;-80
2021/04/01 03:01:17;;;;;;;0.80;0.43;;;;;;;;;;2556315;23;20049;-80
2021/04/01 03:02:39;;;;;;;1.48;0.50;;;;;;;;;;2557150;23;20012;-81
2021/04/01 03:03:59;;;;;;;2.05;0.73;;;;;;;;;;2557910;23;20013;-80
2021/04/01 03:05:19;;;;;;;0.40;0.30;;;;;;;;;;2557561;23;20009;-80
2021/04/01 03:06:37;;;;;;;0.63;0.30;;;;;;;;;;2557094;23;20009;-80
2021/04/01 03:07:56;;;;;;;1.60;0.50;;;;;;;;;;2556589;23;20009;-80
2021/04/01 03:09:16;;;;;;;0.60;0.60;;;;;;;;;;2558662;23;20005;-80
2021/04/01 03:10:35;;;;;;;0.82;0.55;;;;;;;;;;2556758;23;20348;-80
2021/04/01 03:11:54;;;;;;;0.60;0.43;;;;;;;;;;2550335;23;20088;-81
2021/04/01 03:13:13;;;;;;;3.13;0.40;;;;;;;;;;2556437;23;20009;-81
2021/04/01 03:14:31;;;;;;;1.65;0.60;;;;;;;;;;2558610;23;20478;-80
2021/04/01 03:15:51;;;;;;;2.25;0.32;;;;;;;;;;2557187;23;20009;-80
2021/04/01 03:17:10;;;;;;;2.40;0.80;;;;;;;;;;2551452;23;20092;-80
2021/04/01 03:18:29;;;;;;;0.90;0.40;;;;;;;;;;2555806;23;20017;-80
2021/04/01 03:19:48;;;;;;;0.65;0.65;;;;;;;;;;2557692;23;20008;-81
2021/04/01 03:21:07;;;;;;;0.88;0.45;;;;;;;;;;2557422;23;20009;-80
2021/04/01 03:22:26;;;;;;;1.48;0.32;;;;;;;;;;2557574;23;20013;-80
2021/04/01 03:23:45;;;;;;;3.03;0.50;;;;;;;;;;2555328;23;20048;-80
2021/04/01 03:25:04;;;;;;;3.47;0.43;;;;;;;;;;2550801;23;20013;-80
2021/04/01 03:26:24;;;;;;;0.55;0.35;;;;;;;;;;2553080;23;20005;-81
2021/04/01 03:27:43;;;;;;;0.85;0.32;;;;;;;;;;2552238;23;20036;-80
2021/04/01 03:29:02;;;;;;;1.13;0.43;;;;;;;;;;2554578;23;20009;-81
2021/04/01 03:30:21;;;;;;;3.28;0.57;;;;;;;;;;2557125;23;20381;-81
2021/04/01 03:31:40;;;;;;;0.63;0.30;;;;;;;;;;2557517;23;20009;-80
2021/04/01 03:33:00;;;;;;;0.70;0.40;;;;;;;;;;2552863;23;20040;-80
2021/04/01 03:34:18;;;;;;;1.23;0.47;;;;;;;;;;2551389;23;20013;-80
2021/04/01 03:35:37;;;;;;;1.00;0.50;;;;;;;;;;2556619;23;20017;-80
2021/04/01 03:36:56;;;;;;;1.77;0.40;;;;;;;;;;2555867;23;20049;-81
2021/04/01 03:38:16;;;;;;;0.88;0.55;;;;;;;;;;2553104;23;20017;-81
2021/04/01 03:39:35;;;;;;;0.55;0.43;;;;;;;;;;2557807;23;20013;-80
2021/04/01 03:40:55;;;;;;;2.47;0.60;;;;;;;;;;2556793;23;20397;-80
2021/04/01 03:42:14;;;;;;;0.65;0.50;;;;;;;;;;2555575;23;20159;-80
2021/04/01 03:43:33;;;;;;;0.52;0.40;;;;;;;;;;2557718;23;20341;-80
2021/04/01 03:44:53;;;;;;;0.47;0.45;;;;;;;;;;2558507;23;20429;-80
2021/04/01 03:46:13;;;;;;;2.05;0.52;;;;;;;;;;2557161;23;20394;-79
2021/04/01 03:47:31;;;;;;;0.73;0.47;;;;;;;;;;2556427;23;20013;-80
2021/04/01 03:48:50;;;;;;;0.47;0.32;;;;;;;;;;2557114;23;20005;-81
2021/04/01 03:50:11;;;;;;;1.95;0.50;;;;;;;;;;2558188;23;20013;-80
2021/04/01 03:51:30;;;;;;;1.65;0.60;;;;;;;;;;2557186;23;20279;-80
2021/04/01 03:52:49;;;;;;;0.70;0.68;;;;;;;;;;2550744;23;20501;-80
2021/04/01 03:54:08;;;;;;;4.30;0.50;;;;;;;;;;2555879;23;20012;-80
2021/04/01 03:55:40;;;;;;;1.05;0.57;;;;;;;;;;2558027;23;20444;-80
2021/04/01 03:57:00;;;;;;;2.97;0.50;;;;;;;;;;2557559;23;20012;-80
2021/04/01 04:00:16;;;;;;;0.50;0.50;;;;;;;;;;2557470;23;20445;-80
2021/04/01 04:01:56;;;;;;;1.13;0.50;;;;;;;;;;2557065;23;20083;-80
2021/04/01 04:04:48;;;;;;;0.52;0.50;;;;;;;;;;2555066;23;20092;-80
2021/04/01 04:14:10;;;;;;;0.82;0.40;;;;;;;;;;2556712;23;20013;-80
2021/04/01 04:15:29;;;;;;;0.75;0.52;;;;;;;;;;2555737;23;20013;-81
2021/04/01 04:16:48;;;;;;;2.25;0.50;;;;;;;;;;2557130;23;20397;-80
2021/04/01 04:18:07;;;;;;;2.78;0.60;;;;;;;;;;2556641;23;20438;-81
2021/04/01 04:19:25;;;;;;;0.35;0.35;;;;;;;;;;2557982;23;20013;-81
2021/04/01 04:20:44;;;;;;;1.95;0.43;;;;;;;;;;2557064;23;20016;-81
2021/04/01 04:22:03;;;;;;;2.17;0.80;;;;;;;;;;2556268;23;20013;-79
2021/04/01 04:23:24;;;;;;;2.85;0.57;;;;;;;;;;2550845;23;20012;-80
2021/04/01 04:24:43;;;;;;;7.88;0.88;;;;;;;;;;2557070;23;20434;-81
2021/04/01 04:26:02;;;;;;;5.10;0.52;;;;;;;;;;2569881;23;20009;-79
2021/04/01 04:28:58;;;;;;;1.30;0.50;;;;;;;;;;2555166;23;20013;-80
2021/04/01 04:30:18;;;;;;;0.93;0.60;;;;;;;;;;2556778;23;20021;-78
2021/04/01 04:31:37;;;;;;;3.28;0.60;;;;;;;;;;2557184;23;20009;-80
2021/04/01 04:32:56;;;;;;;1.98;0.50;;;;;;;;;;2557984;23;20008;-79
2021/04/01 04:34:15;;;;;;;2.60;0.75;;;;;;;;;;2556663;23;20017;-80
2021/04/01 04:35:34;;;;;;;2.88;0.40;;;;;;;;;;2555839;23;20481;-78
2021/04/01 04:36:52;;;;;;;0.77;0.50;;;;;;;;;;2550708;23;20017;-79
2021/04/01 04:38:11;;;;;;;8.63;0.60;;;;;;;;;;2557581;23;20016;-79
2021/04/01 04:39:30;;;;;;;4.80;0.50;;;;;;;;;;2557206;23;20009;-79
2021/04/01 04:40:59;;;;;;;2.65;0.70;;;;;;;;;;2555053;23;20021;-79
2021/04/01 04:42:18;;;;;;;1.45;0.50;;;;;;;;;;2555651;23;20016;-78
2021/04/01 04:43:37;;;;;;;1.40;0.50;;;;;;;;;;2551028;23;20009;-78
2021/04/01 04:44:56;;;;;;;0.90;0.55;;;;;;;;;;2558626;23;20013;-77
2021/04/01 04:46:15;;;;;;;1.10;0.55;;;;;;;;;;2557350;23;20009;-77
2021/04/01 04:47:34;;;;;;;2.45;0.75;;;;;;;;;;2555396;23;20016;-78
2021/04/01 04:48:53;;;;;;;0.77;0.60;;;;;;;;;;2555749;23;20013;-78
2021/04/01 04:50:12;;;;;;;1.42;0.65;;;;;;;;;;2556726;23;20009;-77
2021/04/01 04:51:32;;;;;;;1.35;0.47;;;;;;;;;;2551893;23;20006;-78
2021/04/01 04:52:51;;;;;;;1.38;0.63;;;;;;;;;;2555724;23;20404;-77
2021/04/01 04:54:10;;;;;;;3.70;0.52;;;;;;;;;;2554554;23;20017;-77
2021/04/01 04:55:29;;;;;;;1.23;0.60;;;;;;;;;;2551984;23;20040;-79
2021/04/01 04:56:50;;;;;;;6.20;1.15;;;;;;;;;;2543866;23;20419;-78
2021/04/01 04:58:17;;;;;;;2.00;0.40;;;;;;;;;;2545703;23;20368;-78
2021/04/01 04:59:47;;;;;;;0.98;0.47;;;;;;;;;;2551072;23;20017;-77
2021/04/01 05:01:11;;;;;;;0.70;0.50;;;;;;;;;;2555942;23;20615;-79
2021/04/01 05:05:46;;;;;;;1.42;0.50;;;;;;;;;;2557599;23;20338;-79
2021/04/01 05:07:05;;;;;;;3.28;0.70;;;;;;;;;;2556040;23;20017;-78
2021/04/01 05:08:24;;;;;;;2.88;0.55;;;;;;;;;;2555961;23;20013;-78
2021/04/01 05:09:42;;;;;;;0.50;0.50;;;;;;;;;;2555182;23;20438;-79
2021/04/01 05:11:01;;;;;;;3.03;0.45;;;;;;;;;;2557892;23;20009;-77
2021/04/01 05:12:20;;;;;;;0.50;0.50;;;;;;;;;;2555330;23;20437;-79
2021/04/01 05:13:39;;;;;;;1.25;0.70;;;;;;;;;;2554388;23;20005;-79
2021/04/01 05:14:58;;;;;;;2.75;0.50;;;;;;;;;;2555043;23;20013;-78
2021/04/01 05:16:17;;;;;;;2.40;0.60;;;;;;;;;;2552058;23;20005;-79
2021/04/01 05:17:35;;;;;;;2.95;0.70;;;;;;;;;;2556333;23;20333;-78
2021/04/01 05:18:57;;;;;;;1.88;0.60;;;;;;;;;;2554780;23;20154;-78
2021/04/01 05:20:17;;;;;;;4.10;0.68;;;;;;;;;;2555383;23;20009;-78
2021/04/01 05:23:24;;;;;;;1.80;0.60;;;;;;;;;;2558400;23;20009;-77
2021/04/01 05:24:45;;;;;;;2.17;0.50;;;;;;;;;;2556097;23;20017;-79
2021/04/01 05:27:50;;;;;;;1.33;0.40;;;;;;;;;;2555120;23;20180;-79
2021/04/01 05:29:29;;;;;;;10.70;0.80;;;;;;;;;;2557065;23;20009;-78
2021/04/01 05:30:49;;;;;;;1.50;0.80;;;;;;;;;;2581781;23;20368;-77
2021/04/01 05:32:07;;;;;;;0.98;0.40;;;;;;;;;;2567115;23;20008;-77
2021/04/01 05:33:32;;;;;;;2.35;0.60;;;;;;;;;;2563763;23;20012;-77
2021/04/01 05:34:51;;;;;;;3.90;0.43;;;;;;;;;;2578502;23;20008;-77
2021/04/01 05:36:12;;;;;;;1.92;0.63;;;;;;;;;;2583752;23;20016;-78
2021/04/01 05:37:32;;;;;;;3.60;0.40;;;;;;;;;;2566736;23;20016;-77
2021/04/01 05:38:51;;;;;;;2.03;0.40;;;;;;;;;;2567414;23;20012;-79
2021/04/01 05:40:13;;;;;;;1.85;0.50;;;;;;;;;;2568141;23;20393;-79
2021/04/01 05:41:32;;;;;;;2.20;0.40;;;;;;;;;;2579100;23;20012;-76
2021/04/01 05:42:51;;;;;;;2.15;0.55;;;;;;;;;;2567740;23;20013;-80
2021/04/01 05:45:51;;;;;;;1.40;0.50;;;;;;;;;;2580815;23;20477;-78
2021/04/01 06:03:15;;;;;;;1.77;0.30;;;;;;;;;;2583398;23;20433;-78
2021/04/01 06:04:40;;;;;;;4.80;0.50;;;;;;;;;;2581083;23;20016;-79
2021/04/01 06:06:13;;;;;;;6.70;0.70;;;;;;;;;;2581783;23;20039;-78
2021/04/01 06:07:39;;;;;;;1.08;0.73;;;;;;;;;;2558734;23;20457;-77
2021/04/01 06:09:03;;;;;;;4.90;0.50;;;;;;;;;;2577334;23;20008;-76
2021/04/01 06:10:23;;;;;;;10.43;1.30;;;;;;;;;;2582047;23;20107;-79
2021/04/01 06:11:42;;;;;;;3.33;0.80;;;;;;;;;;2567583;23;20073;-78
2021/04/01 06:13:03;;;;;;;2.22;0.80;;;;;;;;;;2577150;23;20012;-79
2021/04/01 06:14:35;;;;;;;7.55;0.63;;;;;;;;;;2570335;23;20396;-75
2021/04/01 06:15:54;;;;;;;3.40;0.40;;;;;;;;;;2569645;23;20013;-76
2021/04/01 06:17:15;;;;;;;8.65;0.77;;;;;;;;;;2576823;23;20016;-76
2021/04/01 06:18:39;;;;;;;4.38;0.77;;;;;;;;;;2581514;23;20218;-76
2021/04/01 06:20:04;;;;;;;12.63;0.68;;;;;;;;;;2569342;23;20394;-77
2021/04/01 06:21:25;;;;;;;3.78;0.70;;;;;;;;;;2553949;23;20116;-79
2021/04/01 06:22:43;;;;;;;4.32;0.65;;;;;;;;;;2561864;23;20012;-77
2021/04/01 06:24:13;;;;;;;9.18;0.80;;;;;;;;;;2563107;23;20017;-77
2021/04/01 06:25:34;;;;;;;0.65;0.30;;;;;;;;;;2568532;23;20012;-76
2021/04/01 06:27:33;;;;;;;6.55;0.60;;;;;;;;;;2563053;23;20019;-76
2021/04/01 06:28:49;;;;;;;4.32;0.98;;;;;;;;;;2581448;23;20012;-77
2021/04/01 06:31:43;;;;;;;9.32;0.88;;;;;;;;;;2579790;23;20008;-79
2021/04/01 06:33:07;;;;;;;4.80;0.70;;;;;;;;;;2570769;23;20008;-76
2021/04/01 06:34:33;;;;;;;3.10;0.88;;;;;;;;;;2578394;23;20012;-76
2021/04/01 06:35:57;;;;;;;0.52;0.40;;;;;;;;;;2580856;23;20194;-76
2021/04/01 06:37:20;;;;;;;3.70;0.43;;;;;;;;;;2581717;23;20437;-76
2021/04/01 06:38:38;;;;;;;;;;;;;;;;;;2582172;23;20012;-78
2021/04/01 06:40:02;;;;;;;1.08;0.40;;;;;;;;;;2583499;23;19900;-75
2021/04/01 06:41:21;;;;;;;;;;;;;;;;;;2570442;23;20012;-77
2021/04/01 06:42:51;;;;;;;4.28;0.40;;;;;;;;;;2576428;23;19945;-76
2021/04/01 06:44:30;;;;;;;0.90;0.43;;;;;;;;;;2581363;23;20048;-77
2021/04/01 06:45:55;;;;;;;5.68;0.65;;;;;;;;;;2582485;23;20750;-77
2021/04/01 06:47:19;;;;;;;9.93;0.95;;;;;;;;;;2567896;23;20008;-77
2021/04/01 06:49:08;;;;;;;4.53;0.50;;;;;;;;;;2565473;23;20012;-78
2021/04/01 06:50:35;;;;;;;7.05;0.75;;;;;;;;;;2581403;23;20008;-79
2021/04/01 06:56:37;;;;;;;5.55;0.50;;;;;;;;;;2583138;23;20371;-77
2021/04/01 06:58:15;;;;;;;7.30;0.93;;;;;;;;;;2567459;23;20012;-77
2021/04/01 07:02:33;;;;;;;11.85;0.80;;;;;;;;;;2581818;23;20570;-76
2021/04/01 07:03:56;;;;;;;10.18;0.73;;;;;;;;;;2570441;23;20348;-78
2021/04/01 07:06:19;;;;;;;4.72;0.85;;;;;;;;;;2578210;23;20008;-77
2021/04/01 07:07:05;;;;;;;0.88;0.30;;;;;;;;;;2567659;23;20031;-76
2021/04/01 07:08:40;;;;;;;4.95;0.80;;;;;;;;;;2581491;23;20015;-76
2021/04/01 07:10:23;;;;;;;14.25;2.65;;;;;;;;;;2567798;23;20012;-77
2021/04/01 07:11:43;;;;;;;1.10;0.63;;;;;;;;;;2568294;23;20009;-76
2021/04/01 07:13:06;;;;;;;0.50;0.40;;;;;;;;;;2576925;23;20008;-77
2021/04/01 07:14:27;;;;;;;0.85;0.28;;;;;;;;;;2583675;22;20420;-75
2021/04/01 07:15:53;;;;;;;2.70;0.52;;;;;;;;;;2569216;23;20017;-76
2021/04/01 07:17:22;;;;;;;1.80;0.50;;;;;;;;;;2565056;23;20012;-76
2021/04/01 07:24:15;;;;;;;10.50;0.77;;;;;;;;;;2580862;23;20087;-75
2021/04/01 07:35:28;;;;;;;5.28;0.50;;;;;;;;;;2582381;23;20012;-77
2021/04/01 07:46:58;;;;;;;2.17;0.40;;;;;;;;;;2582006;23;20008;-77
2021/04/01 07:48:20;;;;;;;6.72;1.10;;;;;;;;;;2580773;23;20416;-77
2021/04/01 07:49:41;;;;;;;12.50;1.05;;;;;;;;;;2567576;23;20032;-78
2021/04/01 07:51:00;;;;;;;12.27;2.17;;;;;;;;;;2578067;23;20012;-78
2021/04/01 07:52:22;;;;;;;2.15;0.20;;;;;;;;;;2581243;23;20032;-76
2021/04/01 07:53:42;;;;;;;1.23;0.35;;;;;;;;;;2566509;23;20009;-76
2021/04/01 07:56:52;;;;;;;2.53;0.60;;;;;;;;;;2566216;23;20445;-77
2021/04/01 07:59:54;;;;;;;7.85;0.60;;;;;;;;;;2582190;23;20060;-77
2021/04/01 08:01:42;;;;;;;8.27;0.50;;;;;;;;;;2582663;23;20032;-79
2021/04/01 08:04:20;;;;;;;2.38;0.20;;;;;;;;;;2577881;23;20008;-79
2021/04/01 08:05:40;;;;;;;2.00;0.35;;;;;;;;;;2582365;23;20012;-78
2021/04/01 08:07:12;;;;;;;2.35;0.60;;;;;;;;;;2567471;23;20493;-78
2021/04/01 08:08:35;;;;;;;1.75;0.43;;;;;;;;;;2565576;23;20464;-78
2021/04/01 08:09:59;;;;;;;2.25;0.40;;;;;;;;;;2556010;23;20013;-78
2021/04/01 08:11:24;;;;;;;10.63;0.43;;;;;;;;;;2562762;23;20009;-78
2021/04/01 08:12:48;;;;;;;3.45;0.15;;;;;;;;;;2577592;23;20012;-79
2021/04/01 08:14:10;;;;;;;2.03;0.35;;;;;;;;;;2566775;23;20457;-78
2021/04/01 08:15:35;;;;;;;7.47;0.70;;;;;;;;;;2564179;23;20342;-79
2021/04/01 08:17:08;;;;;;;4.15;0.43;;;;;;;;;;2578330;23;20012;-79
2021/04/01 08:18:29;;;;;;;1.50;0.30;;;;;;;;;;2570121;23;20004;-78
2021/04/01 08:19:51;;;;;;;2.47;0.40;;;;;;;;;;2577193;23;20004;-79
2021/04/01 08:21:11;;;;;;;2.50;0.80;;;;;;;;;;2581335;23;20036;-78
2021/04/01 08:22:31;;;;;;;7.43;0.40;;;;;;;;;;2581052;23;20012;-77
2021/04/01 08:23:59;;;;;;;3.45;0.47;;;;;;;;;;2569775;23;20008;-78
2021/04/01 08:25:20;;;;;;;3.60;0.38;;;;;;;;;;2567852;23;20107;-78
2021/04/01 08:26:46;;;;;;;6.45;0.50;;;;;;;;;;2568686;23;20012;-78
2021/04/01 08:30:27;;;;;;;8.63;0.40;;;;;;;;;;2581003;23;20087;-79
2021/04/01 08:34:49;;;;;;;3.17;0.45;;;;;;;;;;2518103;23;20460;-78
2021/04/01 08:36:09;;;;;;;4.80;0.47;;;;;;;;;;2519758;23;20507;-77
2021/04/01 08:37:32;;;;;;;2.60;0.20;;;;;;;;;;2520182;23;20014;-77
2021/04/01 08:38:53;;;;;;;5.65;0.45;;;;;;;;;;2519978;23;20011;-78
2021/04/01 08:40:12;;;;;;;2.88;0.38;;;;;;;;;;2537893;23;20050;-79
2021/04/01 08:41:34;;;;;;;3.97;0.45;;;;;;;;;;2563406;23;20648;-78
2021/04/01 08:42:53;;;;;;;1.20;0.30;;;;;;;;;;2577629;23;20010;-78
2021/04/01 08:44:15;;;;;;;5.13;0.60;;;;;;;;;;2583306;23;20111;-78
2021/04/01 08:45:59;;;;;;;4.97;0.40;;;;;;;;;;2568856;23;20456;-78
2021/04/01 08:47:21;;;;;;;4.40;0.20;;;;;;;;;;2582080;23;20108;-80
2021/04/01 08:48:54;;;;;;;0.30;0.30;;;;;;;;;;2567337;23;20091;-78
2021/04/01 08:50:28;;;;;;;2.03;0.30;;;;;;;;;;2565129;23;20551;-78
2021/04/01 08:52:01;;;;;;;2.22;0.30;;;;;;;;;;2579406;23;20440;-77
2021/04/01 08:53:24;;;;;;;1.02;0.35;;;;;;;;;;2581301;23;20539;-78
2021/04/01 08:54:56;;;;;;;1.42;0.60;;;;;;;;;;2569593;23;20444;-78
2021/04/01 08:56:43;;;;;;;5.93;0.50;;;;;;;;;;2569936;23;20016;-78
2021/04/01 08:58:08;;;;;;;2.97;0.30;;;;;;;;;;2583293;23;20011;-76
2021/04/01 08:59:46;;;;;;;3.80;0.30;;;;;;;;;;2583535;23;20396;-77
2021/04/01 09:01:15;;;;;;;1.60;0.20;;;;;;;;;;2582275;23;20064;-78
2021/04/01 09:02:35;;;;;;;1.83;0.65;;;;;;;;;;2581768;23;20016;-77
2021/04/01 09:03:57;;;;;;;8.63;0.30;;;;;;;;;;2580885;23;20012;-78
2021/04/01 09:05:18;;;;;;;3.30;0.28;;;;;;;;;;2566285;23;20009;-79
2021/04/01 09:06:45;;;;;;;4.10;0.20;;;;;;;;;;2575050;23;20524;-78
2021/04/01 09:08:06;;;;;;;2.10;0.47;;;;;;;;;;2557726;23;20521;-79
2021/04/01 09:09:30;;;;;;;3.63;0.30;;;;;;;;;;2574016;23;20004;-78
2021/04/01 09:10:56;;;;;;;3.97;0.60;;;;;;;;;;2581812;23;20004;-78
2021/04/01 09:12:28;;;;;;;3.58;0.20;;;;;;;;;;2568623;23;20013;-77
2021/04/01 09:13:53;;;;;;;1.52;0.22;;;;;;;;;;2553580;23;20028;-78
2021/04/01 09:16:01;;;;;;;1.65;0.20;;;;;;;;;;2577172;23;20060;-79
2021/04/01 09:17:12;;;;;;;0.47;0.35;;;;;;;;;;2576338;23;20008;-79
2021/04/01 09:18:31;;;;;;;11.10;0.50;;;;;;;;;;2570084;23;20013;-78
2021/04/01 09:19:50;;;;;;;0.80;0.20;;;;;;;;;;2577935;23;20091;-77
2021/04/01 09:21:09;;;;;;;6.70;0.68;;;;;;;;;;2581677;23;20035;-79
2021/04/01 09:22:30;;;;;;;2.95;0.55;;;;;;;;;;2568593;23;20021;-78
2021/04/01 09:23:54;;;;;;;1.15;0.57;;;;;;;;;;2576703;23;20012;-77
2021/04/01 09:25:14;;;;;;;3.15;0.85;;;;;;;;;;2582113;23;20008;-75
2021/04/01 09:26:33;;;;;;;0.93;0.40;;;;;;;;;;2568927;23;20084;-77
2021/04/01 09:27:52;;;;;;;6.72;0.50;;;;;;;;;;2578590;23;20012;-76
2021/04/01 09:29:12;;;;;;;0.38;0.20;;;;;;;;;;2580401;23;20510;-76
2021/04/01 09:30:31;;;;;;;1.85;0.40;;;;;;;;;;2568145;23;20020;-79
2021/04/01 09:31:54;;;;;;;6.53;0.28;;;;;;;;;;2565797;23;20017;-75